createdAt,value
2019-05-13T00:00:46.856Z,7.20
2019-05-13T00:03:15.584Z,5.33
2019-05-13T00:05:44.702Z,10.37
2019-05-13T00:08:14.098Z,7.73
2019-05-13T00:10:43.716Z,5.50
2019-05-13T00:13:14.749Z,7.30
2019-05-13T00:15:44.256Z,8.00
2019-05-13T00:18:14.330Z,6.13
2019-05-13T00:20:44.294Z,7.57
2019-05-13T00:23:14.288Z,6.67
2019-05-13T00:25:44.433Z,4.73
2019-05-13T00:28:14.449Z,7.07
2019-05-13T00:30:44.459Z,9.93
2019-05-13T00:33:14.012Z,7.57
2019-05-13T00:35:44.228Z,7.73
2019-05-13T00:38:14.149Z,8.43
2019-05-13T00:40:50.806Z,7.10
2019-05-13T00:43:19.591Z,5.40
2019-05-13T00:45:48.433Z,8.93
2019-05-13T00:48:17.312Z,8.87
2019-05-13T00:50:46.135Z,6.83
2019-05-13T00:53:15.039Z,7.27
2019-05-13T00:55:44.587Z,4.30
2019-05-13T00:58:14.168Z,6.00
2019-05-13T01:00:44.410Z,5.67
2019-05-13T01:03:14.028Z,5.27
2019-05-13T01:05:44.482Z,9.23
2019-05-13T01:08:14.576Z,6.80
2019-05-13T01:10:45.162Z,7.53
2019-05-13T01:13:14.253Z,5.87
2019-05-13T01:15:44.378Z,5.63
2019-05-13T01:18:14.243Z,6.73
2019-05-13T01:20:43.860Z,5.93
2019-05-13T01:23:14.110Z,6.77
2019-05-13T01:25:44.447Z,7.37
2019-05-13T01:28:34.453Z,10.10
2019-05-13T01:31:04.108Z,6.23
2019-05-13T01:33:35.109Z,4.23
2019-05-13T01:36:05.263Z,9.70
2019-05-13T01:38:34.459Z,7.80
2019-05-13T01:41:04.416Z,8.23
2019-05-13T01:43:33.601Z,6.90
2019-05-13T01:46:04.519Z,6.03
2019-05-13T01:48:33.389Z,4.70
2019-05-13T01:51:03.777Z,7.27
2019-05-13T01:53:33.613Z,7.20
2019-05-13T01:56:03.821Z,8.30
2019-05-13T01:58:33.955Z,7.30
2019-05-13T02:01:05.052Z,6.97
2019-05-13T02:03:33.901Z,10.57
2019-05-13T02:06:03.763Z,8.03
2019-05-13T02:08:33.639Z,6.47
2019-05-13T02:11:04.383Z,10.60
2019-05-13T02:13:34.315Z,8.93
2019-05-13T02:16:04.105Z,7.40
2019-05-13T02:18:34.142Z,11.63
2019-05-13T02:21:05.266Z,7.60
2019-05-13T02:23:34.110Z,10.73
2019-05-13T02:26:04.411Z,8.47
2019-05-13T02:28:33.572Z,6.80
2019-05-13T02:31:02.370Z,8.83
2019-05-13T02:33:57.121Z,5.27
2019-05-13T02:36:25.926Z,6.00
2019-05-13T02:38:54.780Z,6.63
2019-05-13T02:41:23.759Z,11.80
2019-05-13T02:43:52.827Z,8.53
2019-05-13T02:46:22.618Z,5.93
2019-05-13T02:48:52.802Z,7.47
2019-05-13T02:51:23.051Z,8.53
2019-05-13T02:53:52.498Z,6.13
2019-05-13T02:56:22.651Z,7.77
2019-05-13T02:58:52.666Z,6.77
2019-05-13T03:01:22.246Z,11.30
2019-05-13T03:03:52.826Z,7.57
2019-05-13T03:06:22.385Z,5.40
2019-05-13T03:08:54.492Z,5.10
2019-05-13T03:11:22.892Z,6.60
2019-05-13T03:13:52.887Z,6.93
2019-05-13T03:16:32.509Z,7.57
2019-05-13T03:19:02.806Z,5.93
2019-05-13T03:21:32.647Z,6.53
2019-05-13T03:24:03.447Z,8.07
2019-05-13T03:26:32.348Z,7.10
2019-05-13T03:29:02.767Z,5.77
2019-05-13T03:31:35.876Z,9.30
2019-05-13T03:34:06.339Z,7.63
2019-05-13T03:36:36.352Z,9.00
2019-05-13T03:39:10.876Z,9.00
2019-05-13T03:41:42.409Z,7.10
2019-05-13T03:44:13.413Z,6.07
2019-05-13T03:46:42.663Z,10.20
2019-05-13T03:49:13.770Z,7.77
2019-05-13T03:51:43.355Z,8.33
2019-05-13T03:54:13.077Z,9.13
2019-05-13T03:56:42.735Z,8.83
2019-05-13T03:59:13.290Z,7.27
2019-05-13T04:01:42.868Z,7.57
2019-05-13T04:04:12.769Z,7.80
2019-05-13T04:06:42.930Z,5.30
2019-05-13T04:09:25.060Z,7.90
2019-05-13T04:11:43.520Z,6.90
2019-05-13T04:14:12.681Z,12.97
2019-05-13T04:16:42.840Z,9.23
2019-05-13T04:19:12.398Z,8.90
2019-05-13T04:21:42.942Z,5.90
2019-05-13T04:24:12.387Z,8.33
2019-05-13T04:26:43.278Z,8.13
2019-05-13T04:29:13.271Z,8.00
2019-05-13T04:31:42.658Z,8.40
2019-05-13T04:34:12.485Z,7.53
2019-05-13T04:36:43.062Z,8.77
2019-05-13T04:39:13.047Z,10.33
2019-05-13T04:41:42.492Z,8.50
2019-05-13T04:44:13.080Z,7.57
2019-05-13T04:46:43.348Z,9.03
2019-05-13T04:49:12.702Z,7.93
2019-05-13T04:51:42.215Z,9.50
2019-05-13T04:54:13.010Z,11.60
2019-05-13T04:56:42.310Z,9.93
2019-05-13T04:59:12.436Z,7.07
2019-05-13T05:02:36.592Z,8.67
2019-05-13T05:05:05.772Z,6.73
2019-05-13T05:07:45.483Z,9.17
2019-05-13T05:10:33.823Z,6.83
2019-05-13T05:13:32.367Z,9.27
2019-05-13T05:16:32.729Z,6.67
2019-05-13T05:19:37.886Z,8.27
2019-05-13T05:22:16.388Z,9.03
2019-05-13T05:25:33.116Z,7.83
2019-05-13T05:28:16.137Z,8.87
2019-05-13T05:31:27.039Z,7.30
2019-05-13T05:34:16.788Z,7.33
2019-05-13T05:37:41.613Z,7.80
2019-05-13T05:40:12.347Z,10.00
2019-05-13T05:42:44.728Z,10.57
2019-05-13T05:45:14.060Z,8.00
2019-05-13T05:47:44.190Z,8.53
2019-05-13T05:50:13.659Z,8.47
2019-05-13T05:52:44.027Z,8.07
2019-05-13T05:55:13.103Z,5.67
2019-05-13T05:57:42.795Z,5.47
2019-05-13T06:00:13.153Z,9.73
2019-05-13T06:02:43.762Z,8.93
2019-05-13T06:05:12.873Z,7.53
2019-05-13T06:07:42.569Z,7.87
2019-05-13T06:10:12.529Z,7.20
2019-05-13T06:12:42.406Z,7.20
2019-05-13T06:15:12.357Z,7.00
2019-05-13T06:17:41.494Z,7.17
2019-05-13T06:20:13.255Z,6.83
2019-05-13T06:22:42.584Z,9.47
2019-05-13T06:25:14.558Z,5.60
2019-05-13T06:27:42.564Z,7.07
2019-05-13T06:30:12.564Z,7.67
2019-05-13T06:32:42.078Z,5.57
2019-05-13T06:35:11.576Z,5.63
2019-05-13T06:37:41.487Z,6.57
2019-05-13T06:40:12.411Z,6.67
2019-05-13T06:42:41.830Z,5.03
2019-05-13T06:45:12.460Z,7.77
2019-05-13T06:47:41.602Z,6.30
2019-05-13T06:50:11.681Z,6.90
2019-05-13T06:52:42.524Z,6.70
2019-05-13T06:55:11.749Z,6.43
2019-05-13T06:57:42.239Z,10.03
2019-05-13T07:00:12.304Z,6.37
2019-05-13T07:02:42.767Z,7.07
2019-05-13T07:05:12.343Z,5.63
2019-05-13T07:07:42.401Z,7.13
2019-05-13T07:10:12.708Z,6.23
2019-05-13T07:12:41.909Z,6.60
2019-05-13T07:15:11.694Z,5.53
2019-05-13T07:17:41.610Z,6.37
2019-05-13T07:20:11.813Z,6.23
2019-05-13T07:22:42.073Z,6.10
2019-05-13T07:25:11.563Z,7.33
2019-05-13T07:27:42.391Z,4.97
2019-05-13T07:30:11.706Z,9.03
2019-05-13T07:32:42.067Z,7.77
2019-05-13T07:35:14.279Z,6.30
2019-05-13T07:37:42.865Z,5.63
2019-05-13T07:43:12.410Z,5.73
2019-05-13T07:45:42.316Z,5.30
2019-05-13T07:48:20.605Z,9.33
2019-05-13T07:50:53.369Z,8.40
2019-05-13T07:53:18.542Z,5.80
2019-05-13T07:55:43.001Z,6.00
2019-05-13T07:58:11.885Z,8.67
2019-05-13T08:00:41.865Z,9.10
2019-05-13T08:03:12.253Z,11.73
2019-05-13T08:05:41.993Z,10.53
2019-05-13T08:08:13.124Z,7.23
2019-05-13T08:10:42.378Z,5.90
2019-05-13T08:13:12.083Z,6.70
2019-05-13T08:15:42.170Z,5.33
2019-05-13T08:18:12.225Z,5.67
2019-05-13T08:20:42.162Z,5.43
2019-05-13T08:23:11.913Z,6.27
2019-05-13T08:25:42.473Z,9.10
2019-05-13T08:28:12.394Z,7.37
2019-05-13T08:30:42.583Z,5.77
2019-05-13T08:33:12.511Z,6.23
2019-05-13T08:35:41.942Z,6.73
2019-05-13T08:38:12.288Z,4.53
2019-05-13T08:40:42.455Z,6.57
2019-05-13T08:43:12.156Z,5.40
2019-05-13T08:45:42.125Z,18.43
2019-05-13T08:48:12.675Z,7.13
2019-05-13T08:50:42.169Z,5.27
2019-05-13T08:53:12.158Z,4.13
2019-05-13T08:55:42.575Z,5.87
2019-05-13T08:58:12.648Z,4.87
2019-05-13T09:00:52.948Z,8.90
2019-05-13T09:03:21.890Z,9.10
2019-05-13T09:05:52.220Z,14.47
2019-05-13T09:08:23.416Z,14.87
2019-05-13T09:10:56.528Z,10.77
2019-05-13T09:13:23.252Z,5.73
2019-05-13T09:15:52.149Z,4.20
2019-05-13T09:18:22.825Z,5.67
2019-05-13T09:20:52.205Z,7.57
2019-05-13T09:25:52.349Z,3.17
2019-05-13T09:28:22.152Z,4.83
2019-05-13T09:30:53.112Z,6.00
2019-05-13T09:33:23.965Z,4.07
2019-05-13T09:35:53.746Z,4.37
2019-05-13T09:38:22.754Z,5.87
2019-05-13T09:40:53.116Z,3.07
2019-05-13T09:43:22.490Z,4.40
2019-05-13T09:46:11.842Z,7.17
2019-05-13T09:48:42.468Z,4.60
2019-05-13T09:51:12.415Z,3.30
2019-05-13T09:53:42.069Z,3.00
2019-05-13T09:56:12.933Z,3.10
2019-05-13T09:58:43.166Z,6.23
2019-05-13T10:01:12.493Z,4.63
2019-05-13T10:03:53.967Z,3.33
2019-05-13T10:06:12.781Z,2.97
2019-05-13T10:08:42.122Z,3.67
2019-05-13T10:11:12.323Z,2.87
2019-05-13T10:13:41.531Z,3.53
2019-05-13T10:16:12.471Z,3.70
2019-05-13T10:18:42.114Z,3.60
2019-05-13T10:21:11.390Z,3.57
2019-05-13T10:23:41.841Z,3.10
2019-05-13T10:26:14.059Z,2.50
2019-05-13T10:28:43.575Z,3.23
2019-05-13T10:31:12.581Z,3.00
2019-05-13T10:33:42.058Z,3.17
2019-05-13T10:36:12.136Z,4.60
2019-05-13T10:38:41.570Z,4.93
2019-05-13T10:41:12.024Z,3.70
2019-05-13T10:43:44.123Z,1.83
2019-05-13T10:46:12.802Z,3.53
2019-05-13T10:48:41.846Z,2.83
2019-05-13T10:51:13.128Z,1.77
2019-05-13T10:53:42.578Z,2.30
2019-05-13T10:56:11.853Z,2.20
2019-05-13T10:58:42.582Z,2.40
2019-05-13T11:01:11.862Z,2.20
2019-05-13T11:03:42.751Z,6.07
2019-05-13T11:06:11.762Z,6.40
2019-05-13T11:08:42.260Z,2.20
2019-05-13T11:11:12.990Z,1.27
2019-05-13T11:13:56.417Z,2.17
2019-05-13T11:16:12.390Z,1.70
2019-05-13T11:18:41.415Z,1.93
2019-05-13T11:21:12.970Z,1.53
2019-05-13T11:23:40.768Z,2.30
2019-05-13T11:26:10.096Z,3.43
2019-05-13T11:28:42.707Z,3.97
2019-05-13T11:31:10.601Z,1.87
2019-05-13T11:33:42.312Z,1.93
2019-05-13T11:36:12.916Z,1.67
2019-05-13T11:38:43.104Z,2.17
2019-05-13T11:41:11.796Z,1.93
2019-05-13T11:43:41.366Z,2.03
2019-05-13T11:46:10.598Z,2.73
2019-05-13T11:48:42.112Z,1.20
2019-05-13T11:51:13.137Z,1.13
2019-05-13T11:53:42.843Z,2.90
2019-05-13T11:56:12.196Z,1.40
2019-05-13T12:01:11.902Z,1.23
2019-05-13T12:03:43.477Z,2.90
2019-05-13T12:06:11.323Z,2.27
2019-05-13T12:08:43.683Z,2.63
2019-05-13T12:11:13.903Z,1.50
2019-05-13T12:13:42.639Z,1.97
2019-05-13T12:16:12.830Z,2.37
2019-05-13T12:18:43.818Z,1.00
2019-05-13T12:21:12.466Z,1.53
2019-05-13T12:23:42.815Z,1.57
2019-05-13T12:26:12.871Z,3.20
2019-05-13T12:28:42.236Z,3.93
2019-05-13T12:31:12.164Z,5.60
2019-05-13T12:33:44.055Z,3.47
2019-05-13T12:36:17.924Z,3.70
2019-05-13T12:38:44.328Z,2.20
2019-05-13T12:41:13.083Z,2.67
2019-05-13T12:43:42.743Z,4.80
2019-05-13T12:46:12.587Z,3.23
2019-05-13T12:48:41.806Z,6.23
2019-05-13T12:51:13.184Z,4.33
2019-05-13T12:53:43.441Z,1.90
2019-05-13T12:56:12.590Z,2.00
2019-05-13T12:58:41.672Z,2.03
2019-05-13T13:01:12.717Z,3.63
2019-05-13T13:03:40.967Z,2.23
2019-05-13T13:06:27.018Z,1.80
2019-05-13T13:08:48.393Z,2.43
2019-05-13T13:11:11.154Z,2.53
2019-05-13T13:13:58.166Z,1.27
2019-05-13T13:16:12.598Z,0.90
2019-05-13T13:18:43.488Z,3.33
2019-05-13T13:21:14.470Z,2.53
2019-05-13T13:23:42.914Z,2.37
2019-05-13T13:26:15.753Z,2.30
2019-05-13T13:28:43.479Z,1.47
2019-05-13T13:31:13.166Z,3.10
2019-05-13T13:33:44.462Z,2.97
2019-05-13T13:36:15.746Z,2.30
2019-05-13T13:38:44.118Z,2.20
2019-05-13T13:41:21.998Z,2.13
2019-05-13T13:43:43.670Z,4.80
2019-05-13T13:46:32.673Z,0.90
2019-05-13T13:48:44.049Z,1.67
2019-05-13T13:51:14.408Z,1.23
2019-05-13T13:53:44.639Z,1.37
2019-05-13T13:56:15.680Z,3.83
2019-05-13T13:58:44.511Z,4.10
2019-05-13T14:01:19.973Z,1.60
2019-05-13T14:03:45.996Z,3.00
2019-05-13T14:06:30.770Z,4.20
2019-05-13T14:07:00.600Z,1.93
2019-05-13T14:07:03.865Z,4.53
2019-05-13T14:08:44.889Z,1.17
2019-05-13T14:11:13.723Z,4.40
2019-05-13T14:13:42.708Z,1.33
2019-05-13T14:16:24.868Z,1.30
2019-05-13T14:18:45.177Z,1.10
2019-05-13T14:21:14.069Z,0.93
2019-05-13T14:23:43.164Z,1.60
2019-05-13T14:26:12.008Z,1.83
2019-05-13T14:28:42.077Z,1.87
2019-05-13T14:31:12.919Z,1.27
2019-05-13T14:33:42.409Z,1.77
2019-05-13T14:36:12.250Z,5.47
2019-05-13T14:38:41.275Z,3.53
2019-05-13T14:41:12.441Z,4.90
2019-05-13T14:43:40.719Z,1.43
2019-05-13T14:46:09.550Z,1.07
2019-05-13T14:48:38.411Z,2.37
2019-05-13T14:51:07.276Z,2.10
2019-05-13T14:53:36.392Z,2.90
2019-05-13T14:56:05.298Z,1.83
2019-05-13T14:58:34.149Z,2.20
2019-05-13T15:01:19.758Z,4.30
2019-05-13T15:03:33.575Z,2.50
2019-05-13T15:06:02.777Z,2.47
2019-05-13T15:08:32.809Z,1.37
2019-05-13T15:11:02.206Z,1.87
2019-05-13T15:13:32.031Z,1.40
2019-05-13T15:16:01.093Z,1.87
2019-05-13T15:18:32.530Z,2.40
2019-05-13T15:21:01.687Z,1.73
2019-05-13T15:23:31.623Z,17.43
2019-05-13T15:26:02.226Z,2.83
2019-05-13T15:28:32.619Z,3.27
2019-05-13T15:31:01.418Z,2.27
2019-05-13T15:33:32.641Z,2.33
2019-05-13T15:36:01.831Z,0.80
2019-05-13T15:38:31.996Z,1.20
2019-05-13T15:41:02.077Z,1.37
2019-05-13T15:43:31.906Z,1.73
2019-05-13T15:46:01.749Z,1.30
2019-05-13T15:48:31.673Z,1.27
2019-05-13T15:51:02.134Z,3.53
2019-05-13T15:53:32.069Z,3.03
2019-05-13T15:56:02.574Z,1.57
2019-05-13T15:58:38.784Z,2.00
2019-05-13T16:01:02.975Z,1.37
2019-05-13T16:03:32.076Z,2.50
2019-05-13T16:06:01.725Z,1.07
2019-05-13T16:08:31.827Z,3.13
2019-05-13T16:11:02.180Z,2.03
2019-05-13T16:13:31.919Z,3.80
2019-05-13T16:16:01.645Z,1.63
2019-05-13T16:18:31.673Z,1.57
2019-05-13T16:21:01.755Z,3.47
2019-05-13T16:23:32.291Z,1.23
2019-05-13T16:26:01.807Z,2.23
2019-05-13T16:28:32.604Z,2.70
2019-05-13T16:31:02.239Z,2.40
2019-05-13T16:33:31.617Z,2.77
2019-05-13T16:36:02.535Z,1.87
2019-05-13T16:38:32.833Z,2.80
2019-05-13T16:41:01.560Z,2.40
2019-05-13T16:43:31.957Z,1.70
2019-05-13T16:46:01.018Z,2.10
2019-05-13T16:48:32.138Z,1.70
2019-05-13T16:51:00.514Z,3.10
2019-05-13T16:53:31.513Z,1.40
2019-05-13T16:56:01.800Z,2.10
2019-05-13T16:58:32.487Z,1.30
2019-05-13T17:01:02.376Z,2.40
2019-05-13T17:03:31.928Z,1.87
2019-05-13T17:06:02.081Z,2.60
2019-05-13T17:08:31.864Z,2.10
2019-05-13T17:11:02.253Z,1.67
2019-05-13T17:13:31.585Z,2.17
2019-05-13T17:16:01.602Z,12.23
2019-05-13T17:18:32.376Z,2.13
2019-05-13T17:21:01.523Z,1.70
2019-05-13T17:23:30.676Z,2.27
2019-05-13T17:26:01.909Z,1.77
2019-05-13T17:28:38.124Z,1.40
2019-05-13T17:31:07.059Z,1.50
2019-05-13T17:33:36.114Z,3.00
2019-05-13T17:36:05.310Z,2.43
2019-05-13T17:38:34.164Z,2.57
2019-05-13T17:41:03.078Z,1.57
2019-05-13T17:43:32.282Z,2.17
2019-05-13T17:46:01.197Z,1.30
2019-05-13T17:48:32.784Z,1.73
2019-05-13T17:51:01.311Z,3.57
2019-05-13T17:53:32.513Z,13.13
2019-05-13T17:56:02.335Z,4.50
2019-05-13T17:58:31.609Z,1.93
2019-05-13T18:01:01.999Z,1.60
2019-05-13T18:03:32.066Z,1.20
2019-05-13T18:06:02.502Z,1.20
2019-05-13T18:08:32.178Z,3.70
2019-05-13T18:11:02.219Z,2.93
2019-05-13T18:13:31.701Z,1.60
2019-05-13T18:16:02.583Z,1.53
2019-05-13T18:18:52.891Z,1.53
2019-05-13T18:21:21.853Z,3.47
2019-05-13T18:23:52.321Z,3.63
2019-05-13T18:26:21.721Z,2.37
2019-05-13T18:28:51.444Z,1.20
2019-05-13T18:31:24.315Z,1.63
2019-05-13T18:33:51.590Z,1.30
2019-05-13T18:36:22.311Z,1.50
2019-05-13T18:38:51.057Z,2.60
2019-05-13T18:41:21.424Z,4.17
2019-05-13T18:43:54.394Z,1.73
2019-05-13T18:46:25.185Z,2.10
2019-05-13T18:48:59.015Z,1.27
2019-05-13T18:51:24.922Z,2.10
2019-05-13T18:54:01.314Z,1.70
2019-05-13T18:56:32.306Z,1.87
2019-05-13T18:59:02.129Z,4.23
2019-05-13T19:01:32.063Z,2.47
2019-05-13T19:04:01.908Z,2.97
2019-05-13T19:06:31.592Z,1.70
2019-05-13T19:09:02.247Z,2.43
2019-05-13T19:11:31.789Z,2.97
2019-05-13T19:14:00.734Z,3.23
2019-05-13T19:16:31.776Z,2.03
2019-05-13T19:19:11.856Z,1.47
2019-05-13T19:21:31.484Z,2.67
2019-05-13T19:24:02.024Z,2.13
2019-05-13T19:26:31.270Z,1.50
2019-05-13T19:29:02.069Z,1.87
2019-05-13T19:31:32.451Z,1.77
2019-05-13T19:34:01.539Z,2.47
2019-05-13T19:36:30.404Z,1.73
2019-05-13T19:39:01.676Z,2.47
2019-05-13T19:41:31.526Z,1.70
2019-05-13T19:44:01.606Z,1.97
2019-05-13T19:46:31.466Z,2.20
2019-05-13T19:49:01.541Z,2.80
2019-05-13T19:51:32.266Z,1.73
2019-05-13T19:54:01.456Z,1.33
2019-05-13T19:56:31.970Z,4.03
2019-05-13T19:59:01.572Z,1.20
2019-05-13T20:01:32.227Z,1.17
2019-05-13T20:04:02.427Z,1.50
2019-05-13T20:06:32.015Z,2.40
2019-05-13T20:09:01.618Z,1.30
2019-05-13T20:11:30.608Z,2.33
2019-05-13T20:14:01.370Z,2.57
2019-05-13T20:16:32.073Z,1.73
2019-05-13T20:19:01.385Z,2.57
2019-05-13T20:21:31.998Z,3.17
2019-05-13T20:24:01.288Z,2.17
2019-05-13T20:26:32.282Z,1.43
2019-05-13T20:29:01.633Z,2.73
2019-05-13T20:31:32.223Z,1.23
2019-05-13T20:34:01.723Z,1.17
2019-05-13T20:36:31.508Z,1.50
2019-05-13T20:39:02.090Z,3.37
2019-05-13T20:41:31.694Z,1.90
2019-05-13T20:44:01.446Z,3.33
2019-05-13T20:46:32.640Z,2.33
2019-05-13T20:49:01.001Z,2.60
2019-05-13T20:51:31.302Z,2.47
2019-05-13T20:54:02.406Z,2.43
2019-05-13T20:56:31.820Z,1.87
2019-05-13T20:59:00.785Z,1.83
2019-05-13T21:01:29.717Z,1.60
2019-05-13T21:03:58.651Z,2.30
2019-05-13T21:06:27.495Z,1.67
2019-05-13T21:08:56.532Z,2.80
2019-05-13T21:11:25.458Z,2.37
2019-05-13T21:13:54.346Z,1.77
2019-05-13T21:16:23.386Z,4.00
2019-05-13T21:18:52.178Z,1.47
2019-05-13T21:21:22.147Z,1.97
2019-05-13T21:23:52.201Z,3.53
2019-05-13T21:26:22.485Z,1.47
2019-05-13T21:28:52.191Z,1.40
2019-05-13T21:31:21.553Z,1.53
2019-05-13T21:33:51.550Z,1.40
2019-05-13T21:36:21.646Z,1.57
2019-05-13T21:38:50.625Z,2.53
2019-05-13T21:41:21.165Z,1.50
2019-05-13T21:43:51.870Z,2.27
2019-05-13T21:46:21.244Z,2.40
2019-05-13T21:48:52.053Z,3.40
2019-05-13T21:51:22.137Z,1.73
2019-05-13T21:53:51.893Z,1.90
2019-05-13T21:56:23.068Z,3.10
2019-05-13T21:58:52.228Z,1.40
2019-05-13T22:01:23.396Z,2.73
2019-05-13T22:03:51.860Z,1.70
2019-05-13T22:06:21.822Z,1.93
2019-05-13T22:08:51.880Z,2.17
2019-05-13T22:11:22.211Z,1.70
2019-05-13T22:13:54.021Z,1.43
2019-05-13T22:16:22.852Z,2.30
2019-05-13T22:18:52.453Z,2.57
2019-05-13T22:21:22.227Z,2.43
2019-05-13T22:23:51.807Z,1.57
2019-05-13T22:26:22.192Z,2.50
2019-05-13T22:28:51.346Z,3.30
2019-05-13T22:31:22.154Z,3.03
2019-05-13T22:33:51.876Z,2.53
2019-05-13T22:36:21.360Z,2.00
2019-05-13T22:38:51.699Z,2.73
2019-05-13T22:41:22.228Z,2.70
2019-05-13T22:43:58.225Z,1.40
2019-05-13T22:46:22.059Z,1.50
2019-05-13T22:48:51.350Z,3.70
2019-05-13T22:51:21.399Z,1.30
2019-05-13T22:54:11.644Z,3.10
2019-05-13T22:56:41.235Z,2.67
2019-05-13T22:59:12.249Z,2.03
2019-05-13T23:01:41.792Z,2.33
2019-05-13T23:04:11.470Z,2.40
2019-05-13T23:06:40.576Z,2.60
2019-05-13T23:09:09.486Z,1.87
2019-05-13T23:11:38.388Z,1.50
2019-05-13T23:14:10.182Z,1.53
2019-05-13T23:16:37.758Z,1.73
2019-05-13T23:19:06.581Z,1.30
2019-05-13T23:21:35.318Z,4.03
2019-05-13T23:24:04.205Z,2.93
2019-05-13T23:26:33.397Z,2.77
2019-05-13T23:29:02.177Z,1.43
2019-05-13T23:31:30.904Z,2.20
2019-05-13T23:34:01.395Z,1.67
2019-05-13T23:36:31.621Z,1.93
2019-05-13T23:39:01.040Z,3.93
2019-05-13T23:41:30.017Z,2.87
2019-05-13T23:43:58.851Z,1.47
2019-05-13T23:46:27.685Z,1.40
2019-05-13T23:48:56.559Z,1.87
2019-05-13T23:51:25.416Z,2.40
2019-05-13T23:53:54.256Z,2.13
2019-05-13T23:56:23.238Z,1.23
2019-05-13T23:58:52.133Z,1.53
